createdAt,value
2022-09-28T00:00:01.712Z,97.37
2022-09-28T00:05:14.378Z,97.50
2022-09-28T00:10:16.032Z,97.46
2022-09-28T00:15:17.797Z,97.56
2022-09-28T00:20:19.717Z,97.45
2022-09-28T00:25:22.005Z,97.40
2022-09-28T00:30:23.985Z,97.54
2022-09-28T00:35:25.566Z,97.67
2022-09-28T00:40:27.110Z,97.61
2022-09-28T00:45:28.814Z,97.74
2022-09-28T00:50:35.363Z,97.66
2022-09-28T00:55:42.736Z,97.76
2022-09-28T01:00:44.499Z,97.85
2022-09-28T01:05:48.367Z,97.66
2022-09-28T01:10:51.172Z,97.80
2022-09-28T01:16:04.379Z,97.91
2022-09-28T01:21:18.695Z,97.93
2022-09-28T01:26:35.938Z,97.98
2022-09-28T01:31:44.086Z,97.97
2022-09-28T01:36:51.029Z,97.83
2022-09-28T01:41:55.797Z,97.83
2022-09-28T01:47:04.311Z,97.86
2022-09-28T01:52:17.243Z,97.71
2022-09-28T01:57:34.139Z,97.83
2022-09-28T02:02:42.561Z,98.01
2022-09-28T02:07:48.395Z,98.02
2022-09-28T02:13:40.556Z,97.90
2022-09-28T02:18:43.402Z,97.84
2022-09-28T02:23:58.053Z,98.07
2022-09-28T02:29:00.104Z,98.00
2022-09-28T02:34:01.814Z,98.23
2022-09-28T02:39:03.707Z,98.01
2022-09-28T02:44:20.528Z,97.98
2022-09-28T02:49:37.269Z,97.93
2022-09-28T02:55:06.074Z,97.93
2022-09-28T03:00:12.630Z,98.12
2022-09-28T03:05:22.963Z,98.05
2022-09-28T03:10:46.677Z,98.15
2022-09-28T03:15:49.686Z,98.21
2022-09-28T03:20:52.544Z,98.30
2022-09-28T03:25:54.792Z,98.12
2022-09-28T03:30:56.775Z,98.08
2022-09-28T03:35:58.755Z,98.07
2022-09-28T03:41:01.136Z,98.45
2022-09-28T03:46:09.002Z,98.20
2022-09-28T03:51:16.296Z,98.33
2022-09-28T03:56:18.120Z,98.11
2022-09-28T04:01:20.633Z,98.09
2022-09-28T04:06:23.434Z,98.35
2022-09-28T04:11:25.395Z,98.26
2022-09-28T04:16:27.418Z,98.20
2022-09-28T04:21:37.398Z,98.26
2022-09-28T04:26:44.057Z,98.21
2022-09-28T04:31:51.909Z,98.21
2022-09-28T04:36:54.834Z,98.19
2022-09-28T04:41:56.435Z,98.43
2022-09-28T04:47:00.695Z,98.17
2022-09-28T04:52:23.561Z,98.27
2022-09-28T04:57:25.189Z,98.24
2022-09-28T05:02:27.754Z,98.25
2022-09-28T05:07:47.841Z,98.34
2022-09-28T05:12:49.508Z,98.26
2022-09-28T05:17:53.061Z,98.39
2022-09-28T05:23:00.859Z,98.29
2022-09-28T05:28:03.387Z,98.41
2022-09-28T05:33:24.073Z,98.32
2022-09-28T05:38:37.312Z,98.22
2022-09-28T05:43:39.380Z,98.46
2022-09-28T05:48:41.000Z,98.24
2022-09-28T05:53:42.732Z,98.54
2022-09-28T05:58:44.800Z,98.57
2022-09-28T06:03:47.335Z,98.52
2022-09-28T06:08:50.326Z,98.66
2022-09-28T06:14:10.848Z,99.09
2022-09-28T06:19:13.628Z,98.84
2022-09-28T06:24:35.120Z,98.75
2022-09-28T06:29:36.925Z,98.90
2022-09-28T06:34:39.032Z,98.94
2022-09-28T06:39:41.201Z,99.05
2022-09-28T06:44:42.845Z,98.96
2022-09-28T06:50:12.070Z,99.04
2022-09-28T06:55:46.006Z,99.14
2022-09-28T07:00:50.299Z,99.18
2022-09-28T07:05:54.666Z,99.17
2022-09-28T07:11:16.866Z,99.29
2022-09-28T07:16:42.452Z,99.14
2022-09-28T07:22:03.137Z,99.24
2022-09-28T07:27:07.027Z,99.22
2022-09-28T07:32:28.938Z,99.22
2022-09-28T07:37:31.200Z,99.20
2022-09-28T07:42:32.996Z,99.04
2022-09-28T07:47:35.335Z,99.10
2022-09-28T07:52:58.699Z,98.97
2022-09-28T07:58:07.832Z,98.86
2022-09-28T08:03:32.954Z,98.77
2022-09-28T08:08:35.644Z,98.44
2022-09-28T08:13:38.300Z,98.20
2022-09-28T08:19:06.266Z,97.93
2022-09-28T08:24:07.951Z,97.52
2022-09-28T08:29:09.936Z,97.20
2022-09-28T08:34:38.745Z,96.73
2022-09-28T08:39:56.290Z,96.33
2022-09-28T08:45:24.917Z,96.30
2022-09-28T08:51:01.826Z,96.07
2022-09-28T08:56:31.646Z,95.98
2022-09-28T09:01:39.019Z,95.71
2022-09-28T09:07:14.606Z,94.91
2022-09-28T09:12:50.263Z,94.55
2022-09-28T09:18:20.017Z,94.09
2022-09-28T09:23:57.761Z,93.57
2022-09-28T09:29:27.195Z,92.93
2022-09-28T09:34:37.916Z,92.77
2022-09-28T09:40:30.489Z,92.31
2022-09-28T09:46:12.004Z,89.30
2022-09-28T09:51:48.792Z,87.34
2022-09-28T09:56:56.865Z,86.53
2022-09-28T10:02:28.186Z,85.76
2022-09-28T10:08:00.073Z,85.35
2022-09-28T10:13:02.093Z,85.15
2022-09-28T10:18:10.344Z,84.18
2022-09-28T10:23:36.807Z,83.31
2022-09-28T10:28:55.832Z,82.48
2022-09-28T10:33:58.497Z,81.11
2022-09-28T10:39:09.310Z,81.49
2022-09-28T10:44:16.926Z,80.55
2022-09-28T10:49:47.052Z,80.50
2022-09-28T10:54:53.759Z,79.35
2022-09-28T10:59:57.308Z,78.15
2022-09-28T11:05:27.726Z,78.51
2022-09-28T11:10:33.207Z,77.72
2022-09-28T11:15:46.066Z,77.32
2022-09-28T11:21:14.320Z,76.89
2022-09-28T11:26:25.211Z,77.33
2022-09-28T11:31:29.265Z,77.53
2022-09-28T11:37:11.166Z,76.63
2022-09-28T11:42:35.539Z,75.53
2022-09-28T11:47:40.506Z,74.97
2022-09-28T11:53:10.185Z,74.28
2022-09-28T11:58:14.320Z,73.99
2022-09-28T12:03:39.393Z,74.48
2022-09-28T12:08:47.325Z,74.25
2022-09-28T12:14:21.577Z,71.86
2022-09-28T12:19:39.052Z,71.21
2022-09-28T12:24:45.658Z,70.08
2022-09-28T12:29:50.401Z,70.08
2022-09-28T12:34:52.781Z,69.55
2022-09-28T12:40:09.191Z,69.50
2022-09-28T12:45:47.920Z,68.69
2022-09-28T12:51:15.784Z,66.45
2022-09-28T12:56:29.404Z,65.19
2022-09-28T13:01:49.871Z,65.06
2022-09-28T13:07:13.785Z,64.39
2022-09-28T13:12:44.881Z,63.63
2022-09-28T13:17:57.835Z,64.02
2022-09-28T13:23:25.361Z,64.38
2022-09-28T13:28:43.003Z,65.61
2022-09-28T13:46:39.614Z,65.34
2022-09-28T14:04:22.203Z,65.83
2022-09-28T14:09:48.522Z,65.83
2022-09-28T14:14:51.828Z,66.19
2022-09-28T14:20:07.567Z,65.89
2022-09-28T14:25:25.848Z,66.23
2022-09-28T14:30:48.169Z,65.98
2022-09-28T14:35:59.615Z,66.13
2022-09-28T14:41:10.232Z,66.00
2022-09-28T14:46:12.251Z,66.73
2022-09-28T14:51:26.539Z,67.51
2022-09-28T14:56:32.702Z,67.75
2022-09-28T15:01:36.148Z,68.20
2022-09-28T15:06:46.492Z,68.28
2022-09-28T15:11:47.983Z,68.43
2022-09-28T15:16:50.308Z,68.62
2022-09-28T15:21:52.088Z,67.88
2022-09-28T15:26:53.559Z,68.04
2022-09-28T15:31:55.748Z,68.51
2022-09-28T15:36:58.819Z,68.02
2022-09-28T15:42:01.179Z,68.01
2022-09-28T15:47:16.223Z,68.27
2022-09-28T15:52:52.951Z,68.22
2022-09-28T15:58:12.510Z,68.56
2022-09-28T16:03:16.840Z,68.78
2022-09-28T16:08:22.027Z,69.10
2022-09-28T16:13:24.379Z,69.02
2022-09-28T16:18:30.204Z,69.36
2022-09-28T16:23:34.996Z,70.12
2022-09-28T16:28:36.496Z,70.47
2022-09-28T16:33:39.785Z,71.43
2022-09-28T16:38:46.560Z,72.05
2022-09-28T16:43:50.148Z,72.56
2022-09-28T16:48:52.001Z,73.28
2022-09-28T16:54:12.685Z,73.68
2022-09-28T16:59:15.284Z,74.26
2022-09-28T17:04:16.871Z,75.07
2022-09-28T17:09:18.324Z,75.63
2022-09-28T17:14:23.323Z,76.09
2022-09-28T17:19:25.782Z,76.68
2022-09-28T17:24:28.006Z,77.32
2022-09-28T17:29:30.083Z,78.15
2022-09-28T17:34:31.787Z,78.89
2022-09-28T17:39:34.425Z,79.53
2022-09-28T17:44:36.900Z,80.22
2022-09-28T17:49:38.782Z,80.78
2022-09-28T17:54:42.100Z,81.21
2022-09-28T17:59:43.735Z,81.66
2022-09-28T18:04:52.243Z,82.23
2022-09-28T18:09:56.887Z,82.72
2022-09-28T18:14:59.312Z,83.14
2022-09-28T18:20:01.468Z,83.68
2022-09-28T18:25:05.160Z,83.96
2022-09-28T18:30:07.130Z,84.53
2022-09-28T18:35:11.740Z,84.80
2022-09-28T18:40:15.144Z,85.17
2022-09-28T18:45:18.953Z,85.48
2022-09-28T18:50:21.278Z,85.60
2022-09-28T18:55:23.642Z,86.18
2022-09-28T19:00:26.712Z,86.38
2022-09-28T19:05:28.584Z,86.75
2022-09-28T19:10:30.168Z,86.97
2022-09-28T19:15:32.916Z,87.21
2022-09-28T19:20:34.445Z,87.52
2022-09-28T19:25:36.653Z,87.79
2022-09-28T19:30:40.039Z,88.08
2022-09-28T19:35:42.105Z,88.22
2022-09-28T19:40:45.806Z,88.46
2022-09-28T19:45:52.956Z,88.64
2022-09-28T19:51:03.946Z,88.93
2022-09-28T19:56:05.564Z,89.22
2022-09-28T20:01:07.463Z,89.29
2022-09-28T20:06:11.015Z,89.57
2022-09-28T20:11:15.850Z,89.80
2022-09-28T20:16:20.557Z,89.91
2022-09-28T20:21:26.510Z,89.96
2022-09-28T20:26:29.153Z,89.99
2022-09-28T20:31:31.895Z,90.27
2022-09-28T20:36:34.836Z,90.44
2022-09-28T20:41:36.845Z,90.58
2022-09-28T20:46:39.223Z,90.78
2022-09-28T20:51:40.883Z,90.98
2022-09-28T20:56:43.194Z,90.87
2022-09-28T21:01:45.778Z,91.03
2022-09-28T21:06:48.577Z,91.04
2022-09-28T21:11:50.019Z,91.00
2022-09-28T21:16:53.338Z,91.16
2022-09-28T21:21:55.294Z,91.27
2022-09-28T21:26:59.146Z,91.50
2022-09-28T21:32:02.033Z,91.32
2022-09-28T21:37:04.094Z,91.59
2022-09-28T21:42:06.849Z,91.57
2022-09-28T21:47:09.873Z,91.67
2022-09-28T21:52:11.357Z,91.80
2022-09-28T21:57:13.265Z,91.77
2022-09-28T22:02:15.339Z,91.92
2022-09-28T22:07:17.866Z,91.96
2022-09-28T22:12:19.875Z,92.13
2022-09-28T22:17:22.561Z,91.83
2022-09-28T22:22:28.942Z,92.06
2022-09-28T22:27:32.151Z,92.43
2022-09-28T22:32:33.845Z,92.37
2022-09-28T22:37:35.888Z,92.24
2022-09-28T22:42:38.679Z,92.23
2022-09-28T22:47:40.843Z,92.26
2022-09-28T22:52:42.466Z,92.46
2022-09-28T22:57:44.438Z,92.50
2022-09-28T23:02:46.515Z,92.48
2022-09-28T23:07:48.959Z,92.52
2022-09-28T23:12:54.749Z,92.60
2022-09-28T23:17:56.494Z,92.58
2022-09-28T23:22:58.315Z,92.74
2022-09-28T23:27:59.943Z,92.87
2022-09-28T23:33:02.308Z,92.73
2022-09-28T23:38:04.617Z,93.04
2022-09-28T23:43:06.848Z,93.03
2022-09-28T23:48:09.355Z,93.17
2022-09-28T23:53:14.413Z,93.17
2022-09-28T23:58:16.705Z,93.31
